createdAt,value
2023-05-11T00:00:31.381Z,7.83
2023-05-11T00:01:33.758Z,7.78
2023-05-11T00:02:36.782Z,7.77
2023-05-11T00:03:38.686Z,7.76
2023-05-11T00:04:41.698Z,7.78
2023-05-11T00:05:47.702Z,7.79
2023-05-11T00:06:50.496Z,7.80
2023-05-11T00:07:52.364Z,7.80
2023-05-11T00:08:55.070Z,7.81
2023-05-11T00:09:56.894Z,7.81
2023-05-11T00:11:00.821Z,7.82
2023-05-11T00:12:04.242Z,7.82
2023-05-11T00:13:07.063Z,7.82
2023-05-11T00:14:08.822Z,7.82
2023-05-11T00:15:12.024Z,7.78
2023-05-11T00:16:14.689Z,7.77
2023-05-11T00:17:18.859Z,7.75
2023-05-11T00:18:21.278Z,7.74
2023-05-11T00:19:24.041Z,7.74
2023-05-11T00:20:25.904Z,7.72
2023-05-11T00:21:28.618Z,7.74
2023-05-11T00:22:30.459Z,7.76
2023-05-11T00:23:33.173Z,7.78
2023-05-11T00:24:34.924Z,7.78
2023-05-11T00:25:39.125Z,7.78
2023-05-11T00:26:40.874Z,7.78
2023-05-11T00:27:46.234Z,7.79
2023-05-11T00:28:48.335Z,7.78
2023-05-11T00:29:51.329Z,7.79
2023-05-11T00:30:56.095Z,7.77
2023-05-11T00:31:58.918Z,7.76
2023-05-11T00:33:00.819Z,7.75
2023-05-11T00:34:03.558Z,7.74
2023-05-11T00:35:06.533Z,7.73
2023-05-11T00:36:09.569Z,7.72
2023-05-11T00:37:11.333Z,7.72
2023-05-11T00:38:14.146Z,7.69
2023-05-11T00:39:16.154Z,7.67
2023-05-11T00:40:19.445Z,7.65
2023-05-11T00:41:21.686Z,7.61
2023-05-11T00:42:24.580Z,7.55
2023-05-11T00:43:27.791Z,7.50
2023-05-11T00:44:30.569Z,7.47
2023-05-11T00:45:32.530Z,7.42
2023-05-11T00:46:35.505Z,7.34
2023-05-11T00:47:37.545Z,7.29
2023-05-11T00:48:40.331Z,7.26
2023-05-11T00:49:42.342Z,7.24
2023-05-11T00:50:45.302Z,7.21
2023-05-11T00:51:47.171Z,7.18
2023-05-11T00:52:49.924Z,7.15
2023-05-11T00:53:52.035Z,7.12
2023-05-11T00:54:55.584Z,7.08
2023-05-11T00:55:57.383Z,7.05
2023-05-11T00:57:00.313Z,7.03
2023-05-11T00:58:05.492Z,7.00
2023-05-11T00:59:10.140Z,6.98
2023-05-11T01:00:13.093Z,6.91
2023-05-11T01:01:17.993Z,6.86
2023-05-11T01:02:19.982Z,6.80
2023-05-11T01:03:22.974Z,6.76
2023-05-11T01:04:25.162Z,6.73
2023-05-11T01:05:33.198Z,6.68
2023-05-11T01:06:44.570Z,6.65
2023-05-11T01:07:52.134Z,6.58
2023-05-11T01:08:58.168Z,6.57
2023-05-11T01:10:05.157Z,6.54
2023-05-11T01:11:14.499Z,6.49
2023-05-11T01:12:26.835Z,6.42
2023-05-11T01:13:32.197Z,6.36
2023-05-11T01:14:41.870Z,6.30
2023-05-11T01:15:47.020Z,6.24
2023-05-11T01:16:57.278Z,6.19
2023-05-11T01:18:02.002Z,6.17
2023-05-11T01:19:09.753Z,6.14
2023-05-11T01:20:17.405Z,6.11
2023-05-11T01:21:20.578Z,6.10
2023-05-11T01:22:31.298Z,6.08
2023-05-11T01:24:05.899Z,6.03
2023-05-11T01:25:18.123Z,5.98
2023-05-11T01:26:36.046Z,5.96
2023-05-11T01:27:55.126Z,5.94
2023-05-11T01:29:30.063Z,5.90
2023-05-11T01:30:37.594Z,5.86
2023-05-11T01:31:41.357Z,5.84
2023-05-11T01:32:45.688Z,5.80
2023-05-11T01:33:49.998Z,5.79
2023-05-11T01:34:56.869Z,5.77
2023-05-11T01:36:03.824Z,5.74
2023-05-11T01:37:11.972Z,5.69
2023-05-11T01:38:14.693Z,5.65
2023-05-11T01:39:18.940Z,5.62
2023-05-11T01:40:24.038Z,5.59
2023-05-11T01:41:27.590Z,5.59
2023-05-11T01:42:32.938Z,5.59
2023-05-11T01:43:36.477Z,5.58
2023-05-11T01:44:41.929Z,5.59
2023-05-11T01:47:31.533Z,5.48
2023-05-11T01:48:39.581Z,5.41
2023-05-11T01:49:43.868Z,5.35
2023-05-11T01:50:46.314Z,5.31
2023-05-11T01:51:51.386Z,5.30
2023-05-11T01:52:53.641Z,5.26
2023-05-11T01:53:57.386Z,5.22
2023-05-11T01:55:00.218Z,5.20
2023-05-11T01:56:03.679Z,5.18
2023-05-11T01:57:06.734Z,5.14
2023-05-11T01:58:11.573Z,5.13
2023-05-11T01:59:14.502Z,5.11
2023-05-11T02:00:20.698Z,5.10
2023-05-11T02:01:24.326Z,5.09
2023-05-11T02:02:28.801Z,5.10
2023-05-11T02:03:37.019Z,5.09
2023-05-11T02:04:42.666Z,5.11
2023-05-11T02:05:47.046Z,5.12
2023-05-11T02:06:52.656Z,5.13
2023-05-11T02:07:56.661Z,5.14
2023-05-11T02:09:00.422Z,5.13
2023-05-11T02:10:02.524Z,5.12
2023-05-11T02:11:07.818Z,5.11
2023-05-11T02:12:10.906Z,5.12
2023-05-11T03:47:54.834Z,5.24
2023-05-11T03:48:56.810Z,5.26
2023-05-11T03:50:05.140Z,5.30
2023-05-11T03:51:07.210Z,5.40
2023-05-11T03:52:11.726Z,5.55
2023-05-11T03:53:14.628Z,5.76
2023-05-11T03:54:19.254Z,5.98
2023-05-11T03:55:21.521Z,6.19
2023-05-11T03:56:24.534Z,6.42
2023-05-11T03:57:30.409Z,6.65
2023-05-11T03:58:33.420Z,6.86
2023-05-11T03:59:35.268Z,7.08
2023-05-11T04:00:41.674Z,7.28
2023-05-11T04:01:44.029Z,7.50
2023-05-11T04:02:47.004Z,7.69
2023-05-11T04:03:52.890Z,7.90
2023-05-11T04:04:55.933Z,8.07
2023-05-11T04:05:58.125Z,8.26
2023-05-11T04:07:01.214Z,8.43
2023-05-11T04:08:03.252Z,8.57
2023-05-11T04:09:06.175Z,8.74
2023-05-11T04:10:08.869Z,8.88
2023-05-11T04:11:11.988Z,9.00
2023-05-11T04:12:13.808Z,9.09
2023-05-11T04:13:18.659Z,9.20
2023-05-11T04:14:20.669Z,9.34
2023-05-11T04:15:23.903Z,9.51
2023-05-11T04:16:25.913Z,9.68
2023-05-11T04:17:28.737Z,9.86
2023-05-11T04:18:30.708Z,10.04
2023-05-11T04:19:34.905Z,10.16
2023-05-11T04:20:36.719Z,10.30
2023-05-11T04:21:39.577Z,10.43
2023-05-11T04:22:41.495Z,10.57
2023-05-11T04:23:44.236Z,10.70
2023-05-11T04:24:46.023Z,10.79
2023-05-11T04:25:53.447Z,10.91
2023-05-11T04:26:58.362Z,11.03
2023-05-11T04:28:01.113Z,11.13
2023-05-11T04:29:03.699Z,11.21
2023-05-11T04:30:07.772Z,11.30
2023-05-11T04:31:10.480Z,11.41
2023-05-11T04:32:13.739Z,11.52
2023-05-11T04:33:15.783Z,11.63
2023-05-11T04:34:19.071Z,11.76
2023-05-11T04:35:23.558Z,11.90
2023-05-11T04:36:26.286Z,12.00
2023-05-11T04:37:28.351Z,12.09
2023-05-11T04:38:31.295Z,12.21
2023-05-11T04:39:33.257Z,12.31
2023-05-11T04:40:37.276Z,12.43
2023-05-11T04:41:39.331Z,12.59
2023-05-11T04:42:43.678Z,12.70
2023-05-11T04:43:50.429Z,12.78
2023-05-11T04:44:54.268Z,12.82
2023-05-11T04:45:56.827Z,12.87
2023-05-11T04:47:02.701Z,12.87
2023-05-11T04:48:06.494Z,12.84
2023-05-11T04:49:09.520Z,12.75
2023-05-11T04:50:13.474Z,12.66
2023-05-11T04:51:17.767Z,12.60
2023-05-11T04:52:20.283Z,12.53
2023-05-11T04:53:25.396Z,12.47
2023-05-11T04:54:27.488Z,12.44
2023-05-11T04:55:30.943Z,12.43
2023-05-11T04:56:34.091Z,12.41
2023-05-11T04:57:38.700Z,12.34
2023-05-11T04:58:40.992Z,12.26
2023-05-11T04:59:44.970Z,12.19
2023-05-11T05:00:46.952Z,12.11
2023-05-11T05:01:49.812Z,12.05
2023-05-11T05:02:51.890Z,12.04
2023-05-11T05:03:54.807Z,12.03
2023-05-11T05:04:56.669Z,12.07
2023-05-11T05:05:59.486Z,12.07
2023-05-11T05:07:02.734Z,12.09
2023-05-11T05:08:05.582Z,12.05
2023-05-11T05:09:07.361Z,12.01
2023-05-11T05:10:12.523Z,11.98
2023-05-11T05:11:14.418Z,11.99
2023-05-11T05:12:17.683Z,12.02
2023-05-11T05:13:19.609Z,12.04
2023-05-11T05:14:22.408Z,12.03
2023-05-11T05:15:24.493Z,12.02
2023-05-11T05:16:27.433Z,12.03
2023-05-11T05:17:29.611Z,12.04
2023-05-11T05:18:32.752Z,12.07
2023-05-11T05:19:36.478Z,12.09
2023-05-11T05:20:39.701Z,12.14
2023-05-11T05:21:41.589Z,12.19
2023-05-11T05:22:45.767Z,12.29
2023-05-11T05:23:48.543Z,12.41
2023-05-11T05:24:50.515Z,12.53
2023-05-11T05:25:53.458Z,12.68
2023-05-11T05:26:55.369Z,12.88
2023-05-11T05:27:59.261Z,13.12
2023-05-11T05:29:01.577Z,13.36
2023-05-11T05:30:05.504Z,13.60
2023-05-11T05:31:07.419Z,13.82
2023-05-11T05:32:10.310Z,14.04
2023-05-11T05:33:13.563Z,14.26
2023-05-11T05:34:16.581Z,14.51
2023-05-11T05:35:20.086Z,14.74
2023-05-11T05:36:22.685Z,14.91
2023-05-11T05:37:25.403Z,15.03
2023-05-11T05:38:29.876Z,15.17
2023-05-11T05:39:32.774Z,15.27
2023-05-11T05:40:37.484Z,15.37
2023-05-11T05:41:43.089Z,15.52
2023-05-11T05:42:46.061Z,15.62
2023-05-11T05:43:51.566Z,15.73
2023-05-11T05:44:53.402Z,15.83
2023-05-11T05:45:56.996Z,15.91
2023-05-11T05:47:00.510Z,16.03
2023-05-11T05:48:09.516Z,16.13
2023-05-11T05:49:11.494Z,16.26
2023-05-11T05:50:14.419Z,16.44
2023-05-11T05:51:17.818Z,16.58
2023-05-11T05:52:20.628Z,16.73
2023-05-11T05:53:24.772Z,16.82
2023-05-11T05:54:28.003Z,16.91
2023-05-11T05:55:32.418Z,16.99
2023-05-11T05:56:37.005Z,17.11
2023-05-11T05:57:42.015Z,17.25
2023-05-11T05:58:44.961Z,17.33
2023-05-11T05:59:48.915Z,17.39
2023-05-11T06:00:53.545Z,17.45
2023-05-11T06:01:56.307Z,17.53
2023-05-11T06:02:59.469Z,17.69
2023-05-11T06:04:03.781Z,17.90
2023-05-11T06:05:07.911Z,17.98
2023-05-11T06:06:10.803Z,18.09
2023-05-11T06:07:14.114Z,18.24
2023-05-11T06:08:16.919Z,18.40
2023-05-11T06:09:18.692Z,18.47
2023-05-11T06:10:22.859Z,18.59
2023-05-11T06:11:24.660Z,18.74
2023-05-11T06:12:27.913Z,18.86
2023-05-11T06:13:32.379Z,19.00
2023-05-11T06:14:35.048Z,19.14
2023-05-11T06:15:39.116Z,19.24
2023-05-11T06:16:48.750Z,19.31
2023-05-11T06:17:50.707Z,19.33
2023-05-11T06:18:53.587Z,19.44
2023-05-11T06:19:56.864Z,19.61
2023-05-11T06:21:02.239Z,19.80
2023-05-11T06:22:07.869Z,20.01
2023-05-11T06:23:11.787Z,20.10
2023-05-11T06:24:15.620Z,20.14
2023-05-11T06:25:20.445Z,20.21
2023-05-11T06:26:25.325Z,20.19
2023-05-11T06:27:29.082Z,20.15
2023-05-11T06:28:33.535Z,20.10
2023-05-11T06:29:40.840Z,20.07
2023-05-11T06:30:42.652Z,20.10
2023-05-11T06:31:46.026Z,20.07
2023-05-11T06:32:47.972Z,20.13
2023-05-11T06:33:53.284Z,20.22
2023-05-11T06:35:01.342Z,20.38
2023-05-11T06:36:08.426Z,20.61
2023-05-11T06:37:11.228Z,20.75
2023-05-11T06:38:14.020Z,20.87
2023-05-11T06:39:16.350Z,20.99
2023-05-11T06:40:19.619Z,21.14
2023-05-11T06:41:21.611Z,21.29
2023-05-11T06:42:26.028Z,21.45
2023-05-11T06:43:38.809Z,21.61
2023-05-11T06:44:50.167Z,21.70
2023-05-11T06:45:52.241Z,21.72
2023-05-11T06:46:56.245Z,21.79
2023-05-11T06:47:59.184Z,21.85
2023-05-11T06:49:01.223Z,22.02
2023-05-11T06:50:04.212Z,22.12
2023-05-11T06:51:06.096Z,22.19
2023-05-11T06:52:09.162Z,22.28
2023-05-11T06:53:11.340Z,22.39
2023-05-11T06:54:14.156Z,22.50
2023-05-11T06:55:16.090Z,22.52
2023-05-11T06:56:19.484Z,22.51
2023-05-11T06:57:22.436Z,22.57
2023-05-11T06:58:26.889Z,22.66
2023-05-11T06:59:28.799Z,22.81
2023-05-11T07:00:31.567Z,22.96
2023-05-11T07:01:33.498Z,23.10
2023-05-11T07:02:36.266Z,23.20
2023-05-11T07:03:38.108Z,23.30
2023-05-11T07:04:41.249Z,23.37
2023-05-11T07:05:43.250Z,23.41
2023-05-11T07:06:46.457Z,23.39
2023-05-11T07:07:48.317Z,23.39
2023-05-11T07:08:51.135Z,23.43
2023-05-11T07:09:52.986Z,23.44
2023-05-11T07:10:56.104Z,23.47
2023-05-11T07:11:58.873Z,23.50
2023-05-11T07:13:00.642Z,23.59
2023-05-11T07:14:04.867Z,23.72
2023-05-11T07:15:08.785Z,23.83
2023-05-11T07:16:11.643Z,23.92
2023-05-11T07:17:13.560Z,24.00
2023-05-11T07:18:16.955Z,24.13
2023-05-11T07:19:18.990Z,24.21
2023-05-11T07:20:21.852Z,24.35
2023-05-11T07:21:23.680Z,24.35
2023-05-11T07:22:26.504Z,24.30
2023-05-11T07:23:28.972Z,24.30
2023-05-11T07:24:32.090Z,24.43
2023-05-11T07:25:34.126Z,24.64
2023-05-11T07:26:36.943Z,24.69
2023-05-11T07:27:38.727Z,24.78
2023-05-11T07:28:41.564Z,24.96
2023-05-11T07:29:45.995Z,25.15
2023-05-11T07:30:47.765Z,25.35
2023-05-11T07:31:50.600Z,25.33
2023-05-11T07:32:52.507Z,25.39
2023-05-11T07:33:55.303Z,25.51
2023-05-11T07:34:57.355Z,25.62
2023-05-11T07:36:00.260Z,25.78
2023-05-11T07:37:03.021Z,25.89
2023-05-11T07:38:07.744Z,25.97
2023-05-11T07:39:10.775Z,25.99
2023-05-11T07:40:12.748Z,25.95
2023-05-11T07:41:15.562Z,26.05
2023-05-11T07:42:17.354Z,26.06
2023-05-11T07:43:20.076Z,26.19
2023-05-11T07:44:22.831Z,26.37
2023-05-11T07:45:25.975Z,26.52
2023-05-11T07:46:28.839Z,26.52
2023-05-11T07:47:30.652Z,26.57
2023-05-11T07:48:33.396Z,26.57
2023-05-11T07:49:43.573Z,26.43
2023-05-11T07:50:47.020Z,26.25
2023-05-11T07:51:50.432Z,26.07
2023-05-11T07:52:52.254Z,26.00
2023-05-11T07:53:55.021Z,26.02
2023-05-11T07:54:57.817Z,25.97
2023-05-11T07:56:00.651Z,25.97
2023-05-11T07:57:04.153Z,25.97
2023-05-11T07:58:05.964Z,25.92
2023-05-11T07:59:08.698Z,25.97
2023-05-11T08:00:11.744Z,25.99
2023-05-11T08:01:18.465Z,26.08
2023-05-11T08:02:20.271Z,26.06
2023-05-11T08:03:23.190Z,25.95
2023-05-11T08:04:27.156Z,25.96
2023-05-11T08:05:33.007Z,26.09
2023-05-11T08:06:35.780Z,26.21
2023-05-11T08:07:41.010Z,26.42
2023-05-11T08:08:43.368Z,26.64
2023-05-11T08:09:46.201Z,26.86
2023-05-11T08:10:48.925Z,27.05
2023-05-11T08:11:50.735Z,27.07
2023-05-11T08:12:53.460Z,27.07
2023-05-11T08:13:55.430Z,26.96
2023-05-11T08:14:58.190Z,26.76
2023-05-11T08:16:00.702Z,26.43
2023-05-11T08:17:05.666Z,26.07
2023-05-11T08:18:08.579Z,25.73
2023-05-11T08:19:11.639Z,25.43
2023-05-11T08:20:14.731Z,25.42
2023-05-11T08:21:17.521Z,25.53
2023-05-11T08:22:20.331Z,25.73
2023-05-11T08:23:23.199Z,25.94
2023-05-11T08:24:26.056Z,25.89
2023-05-11T08:25:28.135Z,25.80
2023-05-11T08:26:30.982Z,25.83
2023-05-11T08:27:32.734Z,25.64
2023-05-11T08:28:35.482Z,25.58
2023-05-11T08:29:37.235Z,25.65
2023-05-11T08:30:39.964Z,25.68
2023-05-11T08:31:41.789Z,25.63
2023-05-11T08:32:58.036Z,25.41
2023-05-11T08:34:02.484Z,25.04
2023-05-11T08:35:06.474Z,24.76
2023-05-11T08:36:09.525Z,24.49
2023-05-11T08:37:12.724Z,24.31
2023-05-11T08:38:27.322Z,24.17
2023-05-11T08:39:45.438Z,24.09
2023-05-11T08:40:49.758Z,24.06
2023-05-11T08:41:52.655Z,24.21
2023-05-11T08:42:55.825Z,24.49
2023-05-11T08:43:59.309Z,24.49
2023-05-11T08:45:03.950Z,24.28
2023-05-11T08:46:08.287Z,24.27
2023-05-11T08:47:22.664Z,24.25
2023-05-11T08:48:27.657Z,24.57
2023-05-11T08:49:30.478Z,24.83
2023-05-11T08:50:32.235Z,25.14
2023-05-11T08:51:34.983Z,25.47
2023-05-11T08:52:36.816Z,25.76
2023-05-11T08:53:40.080Z,25.91
2023-05-11T08:54:41.877Z,26.09
2023-05-11T08:55:45.098Z,26.25
2023-05-11T08:56:48.006Z,26.50
2023-05-11T08:57:51.623Z,26.75
2023-05-11T08:58:56.079Z,26.75
2023-05-11T08:59:59.384Z,26.65
2023-05-11T09:01:02.368Z,26.50
2023-05-11T09:02:04.757Z,26.37
2023-05-11T09:03:08.349Z,26.18
2023-05-11T09:04:12.170Z,26.06
2023-05-11T09:05:15.354Z,26.11
2023-05-11T09:06:18.982Z,26.17
2023-05-11T09:07:23.055Z,26.25
2023-05-11T09:08:25.886Z,26.28
2023-05-11T09:09:28.658Z,26.23
2023-05-11T09:10:30.457Z,26.30
2023-05-11T09:11:33.340Z,26.29
2023-05-11T09:12:35.415Z,26.32
2023-05-11T09:13:38.166Z,26.49
2023-05-11T09:14:39.974Z,26.64
2023-05-11T09:15:42.785Z,26.66
2023-05-11T09:16:45.606Z,26.65
2023-05-11T09:17:48.429Z,26.72
2023-05-11T09:18:51.292Z,26.86
2023-05-11T09:20:05.275Z,27.02
2023-05-11T09:21:08.317Z,27.04
2023-05-11T09:22:10.158Z,26.86
2023-05-11T09:23:16.924Z,26.69
2023-05-11T09:24:21.045Z,26.58
2023-05-11T09:25:23.630Z,26.42
2023-05-11T09:26:29.172Z,26.33
2023-05-11T09:27:32.211Z,26.29
2023-05-11T09:28:36.008Z,26.31
2023-05-11T09:29:38.036Z,26.37
2023-05-11T09:30:40.772Z,26.36
2023-05-11T09:31:43.839Z,26.33
2023-05-11T09:32:54.131Z,26.26
2023-05-11T09:34:08.808Z,26.15
2023-05-11T09:35:22.020Z,26.12
2023-05-11T09:36:25.395Z,26.09
2023-05-11T09:37:27.162Z,25.99
2023-05-11T09:38:29.906Z,25.88
2023-05-11T09:39:39.545Z,25.76
2023-05-11T09:40:52.312Z,25.59
2023-05-11T09:42:12.420Z,25.62
2023-05-11T09:43:18.933Z,25.76
2023-05-11T09:44:21.646Z,25.78
2023-05-11T09:45:39.509Z,25.70
2023-05-11T09:46:43.786Z,25.68
2023-05-11T09:47:47.605Z,25.63
2023-05-11T09:49:00.271Z,25.60
2023-05-11T09:50:17.036Z,25.68
2023-05-11T09:51:29.602Z,25.90
2023-05-11T09:52:32.364Z,26.10
2023-05-11T09:53:35.805Z,26.11
2023-05-11T09:54:43.831Z,25.94
2023-05-11T09:55:51.990Z,25.67
2023-05-11T09:56:58.155Z,25.62
2023-05-11T09:58:00.191Z,25.74
2023-05-11T09:59:04.119Z,25.75
2023-05-11T10:00:14.506Z,25.80
2023-05-11T10:01:18.465Z,25.89
2023-05-11T10:02:23.692Z,26.07
2023-05-11T10:03:26.642Z,26.22
2023-05-11T10:04:30.875Z,26.25
2023-05-11T10:05:33.968Z,26.27
2023-05-11T10:06:49.481Z,26.35
2023-05-11T10:07:57.982Z,26.40
2023-05-11T10:09:10.031Z,26.40
2023-05-11T10:10:13.642Z,26.30
2023-05-11T10:11:15.620Z,26.20
2023-05-11T10:12:18.746Z,26.21
2023-05-11T10:13:21.192Z,26.23
2023-05-11T10:14:25.130Z,26.25
2023-05-11T10:15:29.114Z,26.25
2023-05-11T10:16:31.722Z,26.14
2023-05-11T10:17:35.265Z,26.07
2023-05-11T10:18:37.476Z,26.06
2023-05-11T10:19:40.321Z,26.18
2023-05-11T10:20:43.477Z,26.28
2023-05-11T10:21:47.880Z,26.18
2023-05-11T10:22:52.423Z,26.10
2023-05-11T10:23:55.486Z,26.08
2023-05-11T10:24:58.689Z,26.27
2023-05-11T10:26:01.769Z,26.41
2023-05-11T10:27:05.266Z,26.40
2023-05-11T10:28:07.167Z,26.31
2023-05-11T10:29:10.833Z,26.21
2023-05-11T10:30:13.526Z,26.11
2023-05-11T10:31:18.468Z,26.08
2023-05-11T10:32:21.262Z,26.13
2023-05-11T10:33:24.950Z,26.22
2023-05-11T10:34:29.673Z,26.38
2023-05-11T10:35:33.003Z,26.37
2023-05-11T10:36:36.080Z,26.25
2023-05-11T10:37:41.779Z,26.18
2023-05-11T10:38:43.716Z,26.21
2023-05-11T10:39:49.862Z,26.12
2023-05-11T10:40:52.984Z,26.02
2023-05-11T10:42:04.114Z,26.07
2023-05-11T10:43:20.510Z,26.04
2023-05-11T10:44:40.514Z,25.88
2023-05-11T10:45:51.161Z,25.86
2023-05-11T10:47:13.837Z,25.81
2023-05-11T10:48:32.669Z,25.69
2023-05-11T10:49:50.961Z,25.52
2023-05-11T10:51:01.236Z,25.58
2023-05-11T10:52:28.223Z,25.47
2023-05-11T10:53:41.650Z,25.14
2023-05-11T10:54:55.427Z,24.94
2023-05-11T10:56:06.307Z,24.72
2023-05-11T10:57:15.057Z,24.69
2023-05-11T10:58:23.182Z,24.76
2023-05-11T10:59:51.887Z,24.72
2023-05-11T11:01:21.777Z,24.76
2023-05-11T11:02:24.239Z,24.87
2023-05-11T11:03:27.191Z,25.02
2023-05-11T11:04:43.395Z,25.12
2023-05-11T11:05:46.332Z,25.14
2023-05-11T11:07:05.550Z,25.17
2023-05-11T11:08:09.458Z,25.20
2023-05-11T11:09:14.542Z,25.22
2023-05-11T11:10:31.379Z,25.24
2023-05-11T11:11:36.790Z,25.32
2023-05-11T11:12:39.669Z,25.27
2023-05-11T11:13:57.094Z,25.35
2023-05-11T11:15:01.137Z,25.35
2023-05-11T11:16:10.110Z,25.29
2023-05-11T11:17:27.435Z,25.23
2023-05-11T11:18:30.262Z,25.29
2023-05-11T11:19:42.506Z,25.24
2023-05-11T11:20:48.728Z,25.07
2023-05-11T11:21:51.704Z,24.97
2023-05-11T11:22:54.574Z,24.97
2023-05-11T11:23:56.656Z,25.06
2023-05-11T11:25:01.133Z,25.28
2023-05-11T11:26:03.087Z,25.51
2023-05-11T11:27:06.133Z,25.70
2023-05-11T11:28:09.320Z,25.84
2023-05-11T11:29:15.333Z,25.98
2023-05-11T11:30:19.228Z,26.00
2023-05-11T11:31:25.937Z,25.96
2023-05-11T11:32:29.384Z,25.89
2023-05-11T11:33:33.601Z,25.92
2023-05-11T11:34:37.463Z,26.01
2023-05-11T11:35:46.180Z,26.20
2023-05-11T11:37:04.848Z,26.50
2023-05-11T11:38:08.229Z,26.72
2023-05-11T11:39:10.249Z,26.90
2023-05-11T11:40:16.727Z,26.91
2023-05-11T11:41:29.281Z,26.76
2023-05-11T11:42:37.686Z,26.47
2023-05-11T11:43:45.658Z,26.22
2023-05-11T11:44:48.380Z,26.25
2023-05-11T11:45:52.755Z,26.43
2023-05-11T11:47:13.378Z,26.52
2023-05-11T11:48:16.652Z,26.61
2023-05-11T11:49:29.530Z,26.64
2023-05-11T11:50:31.384Z,26.45
2023-05-11T11:51:34.487Z,26.26
2023-05-11T11:52:36.368Z,26.02
2023-05-11T11:54:06.630Z,25.84
2023-05-11T11:55:09.383Z,25.84
2023-05-11T11:56:40.605Z,25.85
2023-05-11T11:57:46.629Z,25.83
2023-05-11T11:58:58.315Z,25.93
2023-05-11T12:00:01.488Z,26.06
2023-05-11T12:01:04.097Z,26.20
2023-05-11T12:02:07.011Z,26.51
2023-05-11T12:03:10.419Z,26.82
2023-05-11T12:04:41.928Z,27.12
2023-05-11T12:05:45.692Z,27.21
2023-05-11T12:06:56.303Z,27.35
2023-05-11T12:08:01.104Z,27.68
2023-05-11T12:09:03.503Z,27.97
2023-05-11T12:10:06.943Z,27.98
2023-05-11T12:11:08.891Z,27.91
2023-05-11T12:12:13.186Z,27.93
2023-05-11T12:13:22.075Z,27.81
2023-05-11T12:14:23.976Z,27.67
2023-05-11T12:15:27.892Z,27.56
2023-05-11T12:16:30.679Z,27.40
2023-05-11T12:17:34.663Z,27.11
2023-05-11T12:18:36.572Z,26.72
2023-05-11T12:19:39.379Z,26.31
2023-05-11T12:20:42.127Z,25.88
2023-05-11T12:21:45.103Z,25.49
2023-05-11T12:22:49.060Z,25.24
2023-05-11T12:23:52.867Z,25.03
2023-05-11T12:25:00.430Z,24.68
2023-05-11T12:26:02.794Z,24.32
2023-05-11T12:27:09.484Z,23.94
2023-05-11T12:28:13.630Z,23.63
2023-05-11T12:29:15.855Z,23.36
2023-05-11T12:30:22.869Z,23.40
2023-05-11T12:31:24.780Z,23.66
2023-05-11T12:32:29.060Z,24.11
2023-05-11T12:33:31.937Z,24.64
2023-05-11T12:34:34.660Z,25.23
2023-05-11T12:35:38.877Z,25.75
2023-05-11T12:36:41.880Z,26.15
2023-05-11T12:37:44.874Z,26.20
2023-05-11T12:38:47.590Z,26.16
2023-05-11T12:39:54.979Z,26.05
2023-05-11T12:40:56.776Z,26.02
2023-05-11T12:41:59.554Z,25.97
2023-05-11T12:43:01.358Z,25.89
2023-05-11T12:44:05.800Z,25.79
2023-05-11T12:45:09.808Z,25.60
2023-05-11T12:46:12.165Z,25.31
2023-05-11T12:47:15.607Z,25.02
2023-05-11T12:48:17.811Z,24.72
2023-05-11T12:50:26.335Z,24.16
2023-05-11T12:51:52.504Z,24.25
2023-05-11T12:52:55.274Z,24.48
2023-05-11T12:53:57.144Z,24.72
2023-05-11T12:55:01.074Z,24.99
2023-05-11T12:56:04.254Z,25.32
2023-05-11T12:57:08.058Z,25.66
2023-05-11T12:58:11.879Z,26.00
2023-05-11T12:59:34.782Z,26.44
2023-05-11T13:00:37.836Z,26.53
2023-05-11T13:01:40.624Z,26.54
2023-05-11T13:02:50.768Z,26.60
2023-05-11T13:03:53.688Z,26.60
2023-05-11T13:04:56.506Z,26.52
2023-05-11T13:06:05.537Z,26.14
2023-05-11T13:07:08.477Z,25.90
2023-05-11T13:08:14.626Z,25.87
2023-05-11T13:09:22.184Z,26.13
2023-05-11T13:10:25.437Z,26.45
2023-05-11T13:11:27.290Z,26.62
2023-05-11T13:12:32.272Z,26.72
2023-05-11T13:13:34.408Z,26.74
2023-05-11T13:14:38.738Z,26.87
2023-05-11T13:15:51.762Z,27.21
2023-05-11T13:16:54.181Z,27.37
2023-05-11T13:17:58.905Z,27.52
2023-05-11T13:19:01.898Z,27.73
2023-05-11T13:20:27.462Z,27.77
2023-05-11T13:21:29.730Z,27.44
2023-05-11T13:22:32.640Z,27.05
2023-05-11T13:23:36.832Z,26.63
2023-05-11T13:24:39.900Z,26.24
2023-05-11T13:25:53.032Z,26.15
2023-05-11T13:26:57.325Z,26.33
2023-05-11T13:28:01.471Z,26.33
2023-05-11T13:29:10.855Z,26.17
2023-05-11T13:30:18.529Z,25.89
2023-05-11T13:31:20.437Z,25.64
2023-05-11T13:32:23.342Z,25.58
2023-05-11T13:33:25.397Z,25.68
2023-05-11T13:34:28.124Z,25.93
2023-05-11T13:35:29.894Z,26.14
2023-05-11T13:36:34.343Z,26.12
2023-05-11T13:37:37.233Z,25.97
2023-05-11T13:38:39.676Z,25.71
2023-05-11T13:39:42.425Z,25.45
2023-05-11T13:40:44.219Z,25.16
2023-05-11T13:41:47.322Z,24.92
2023-05-11T13:42:50.078Z,24.56
2023-05-11T13:43:51.897Z,24.17
2023-05-11T13:44:54.690Z,23.86
2023-05-11T13:45:58.744Z,23.67
2023-05-11T13:47:01.566Z,23.58
2023-05-11T13:48:04.980Z,23.58
2023-05-11T13:49:07.002Z,23.75
2023-05-11T13:50:10.338Z,23.92
2023-05-11T13:51:12.126Z,24.17
2023-05-11T13:52:15.194Z,24.38
2023-05-11T13:53:16.943Z,24.70
2023-05-11T13:54:20.370Z,24.92
2023-05-11T13:55:22.307Z,24.92
2023-05-11T13:56:25.987Z,24.90
2023-05-11T13:57:28.752Z,24.97
2023-05-11T13:58:30.578Z,25.16
2023-05-11T13:59:33.291Z,25.29
2023-05-11T14:00:35.332Z,25.53
2023-05-11T14:01:39.579Z,25.78
2023-05-11T14:02:42.475Z,25.97
2023-05-11T14:03:44.393Z,26.18
2023-05-11T14:04:47.217Z,26.31
2023-05-11T14:05:49.156Z,26.33
2023-05-11T14:06:51.930Z,26.42
2023-05-11T14:07:53.768Z,26.57
2023-05-11T14:08:56.581Z,26.49
2023-05-11T14:09:59.386Z,26.29
2023-05-11T14:11:01.487Z,25.99
2023-05-11T14:12:04.665Z,25.67
2023-05-11T14:13:06.652Z,25.39
2023-05-11T14:14:09.426Z,25.24
2023-05-11T14:15:11.585Z,25.27
2023-05-11T14:16:14.798Z,25.42
2023-05-11T14:17:17.970Z,25.60
2023-05-11T14:18:20.980Z,25.83
2023-05-11T14:19:23.882Z,26.01
2023-05-11T14:20:25.777Z,26.13
2023-05-11T14:21:29.080Z,26.21
2023-05-11T14:22:31.075Z,26.26
2023-05-11T14:23:34.490Z,26.38
2023-05-11T14:24:37.564Z,26.38
2023-05-11T14:25:39.560Z,26.41
2023-05-11T14:26:42.471Z,26.50
2023-05-11T14:27:44.282Z,26.61
2023-05-11T14:28:47.485Z,26.66
2023-05-11T14:29:51.442Z,26.64
2023-05-11T14:30:54.216Z,26.65
2023-05-11T14:31:56.339Z,26.71
2023-05-11T14:33:01.332Z,26.85
2023-05-11T14:34:03.428Z,27.00
2023-05-11T14:35:06.948Z,26.87
2023-05-11T14:36:09.637Z,26.56
2023-05-11T14:37:13.132Z,26.33
2023-05-11T14:38:15.763Z,26.23
2023-05-11T14:39:18.608Z,26.31
2023-05-11T14:40:21.466Z,26.32
2023-05-11T14:41:24.286Z,26.32
2023-05-11T14:42:26.258Z,26.32
2023-05-11T14:43:29.160Z,26.34
2023-05-11T14:44:31.746Z,26.32
2023-05-11T14:45:34.853Z,26.35
2023-05-11T14:46:37.657Z,26.25
2023-05-11T14:47:40.275Z,26.09
2023-05-11T14:48:44.457Z,26.13
2023-05-11T14:49:46.316Z,26.15
2023-05-11T14:50:49.102Z,26.03
2023-05-11T14:51:51.959Z,25.91
2023-05-11T14:52:53.812Z,25.93
2023-05-11T14:53:56.580Z,26.06
2023-05-11T14:54:58.451Z,26.17
2023-05-11T14:56:01.410Z,26.29
2023-05-11T14:57:04.200Z,26.43
2023-05-11T14:58:09.240Z,26.48
2023-05-11T14:59:11.021Z,26.47
2023-05-11T15:00:14.931Z,26.49
2023-05-11T15:01:16.801Z,26.49
2023-05-11T15:02:19.643Z,26.46
2023-05-11T15:03:21.525Z,26.54
2023-05-11T15:04:26.020Z,26.54
2023-05-11T15:05:27.819Z,26.49
2023-05-11T15:06:30.634Z,26.39
2023-05-11T15:07:32.486Z,26.17
2023-05-11T15:08:35.219Z,26.07
2023-05-11T15:09:36.980Z,26.05
2023-05-11T15:10:40.475Z,26.04
2023-05-11T15:11:42.266Z,25.98
2023-05-11T15:12:45.011Z,25.91
2023-05-11T15:13:47.572Z,25.91
2023-05-11T15:14:50.551Z,25.88
2023-05-11T15:15:52.483Z,25.75
2023-05-11T15:16:58.875Z,25.68
2023-05-11T15:18:00.981Z,25.69
2023-05-11T15:19:05.354Z,25.82
2023-05-11T15:20:10.123Z,25.97
2023-05-11T15:21:12.887Z,26.13
2023-05-11T15:22:14.660Z,26.22
2023-05-11T15:23:17.806Z,26.24
2023-05-11T15:24:19.573Z,26.16
2023-05-11T15:25:22.562Z,26.09
2023-05-11T15:26:25.045Z,26.04
2023-05-11T15:27:27.889Z,26.03
2023-05-11T15:28:29.701Z,26.10
2023-05-11T15:29:32.684Z,26.14
2023-05-11T15:30:35.966Z,26.18
2023-05-11T15:31:37.868Z,26.21
2023-05-11T15:32:40.886Z,26.23
2023-05-11T15:33:43.004Z,26.22